createdAt,value
2022-08-05T00:01:29.209Z,3.08
2022-08-05T00:03:57.219Z,3.40
2022-08-05T00:06:27.876Z,3.10
2022-08-05T00:09:00.804Z,2.78
2022-08-05T00:11:30.546Z,3.40
2022-08-05T00:14:12.108Z,3.00
2022-08-05T00:16:53.140Z,3.00
2022-08-05T00:19:23.205Z,3.05
2022-08-05T00:21:50.490Z,2.95
2022-08-05T00:24:19.364Z,3.25
2022-08-05T00:26:54.002Z,2.80
2022-08-05T00:29:25.208Z,3.30
2022-08-05T00:32:13.436Z,3.20
2022-08-05T00:35:04.281Z,3.40
2022-08-05T00:37:50.793Z,3.28
2022-08-05T00:40:17.742Z,3.78
2022-08-05T00:42:56.050Z,3.40
2022-08-05T00:45:28.136Z,3.22
2022-08-05T00:48:10.075Z,3.05
2022-08-05T00:50:38.136Z,3.83
2022-08-05T00:53:16.015Z,4.30
2022-08-05T00:55:52.176Z,3.42
2022-08-05T00:58:19.463Z,3.85
2022-08-05T01:00:50.238Z,3.35
2022-08-05T01:03:22.593Z,4.10
2022-08-05T01:05:51.410Z,3.58
2022-08-05T01:08:40.620Z,3.50
2022-08-05T01:11:33.619Z,3.30
2022-08-05T01:14:15.428Z,3.40
2022-08-05T01:16:49.554Z,3.45
2022-08-05T01:19:36.663Z,3.17
2022-08-05T01:22:42.092Z,3.78
2022-08-05T01:25:53.120Z,3.90
2022-08-05T01:28:44.028Z,4.40
2022-08-05T01:31:16.758Z,3.20
2022-08-05T01:33:53.828Z,3.60
2022-08-05T01:36:28.343Z,3.20
2022-08-05T01:39:00.207Z,3.28
2022-08-05T01:41:32.711Z,3.65
2022-08-05T01:44:02.027Z,3.47
2022-08-05T01:46:41.984Z,3.15
2022-08-05T01:49:24.011Z,3.90
2022-08-05T01:51:58.380Z,3.17
2022-08-05T01:54:32.502Z,3.90
2022-08-05T01:58:10.807Z,3.92
2022-08-05T01:59:49.544Z,3.53
2022-08-05T02:02:19.885Z,3.15
2022-08-05T02:04:56.933Z,3.80
2022-08-05T02:07:24.690Z,4.18
2022-08-05T02:09:57.752Z,3.80
2022-08-05T02:12:46.027Z,3.47
2022-08-05T02:15:34.703Z,3.17
2022-08-05T02:18:33.085Z,3.55
2022-08-05T02:21:22.357Z,3.70
2022-08-05T02:23:55.278Z,3.78
2022-08-05T02:26:27.390Z,3.30
2022-08-05T02:28:58.221Z,3.80
2022-08-05T02:31:28.578Z,3.40
2022-08-05T02:34:06.101Z,3.42
2022-08-05T02:36:39.366Z,3.38
2022-08-05T02:39:09.292Z,3.95
2022-08-05T02:41:43.154Z,3.00
2022-08-05T02:44:26.526Z,3.10
2022-08-05T02:47:00.646Z,3.45
2022-08-05T02:49:36.784Z,3.65
2022-08-05T02:52:08.599Z,3.60
2022-08-05T02:54:41.290Z,3.95
2022-08-05T02:58:10.220Z,3.28
2022-08-05T03:00:01.337Z,3.75
2022-08-05T03:02:36.896Z,4.20
2022-08-05T03:05:05.487Z,4.00
2022-08-05T03:08:01.284Z,3.65
2022-08-05T03:10:24.501Z,3.58
2022-08-05T03:12:54.332Z,3.65
2022-08-05T03:15:25.296Z,3.65
2022-08-05T03:17:55.757Z,4.22
2022-08-05T03:20:24.448Z,4.20
2022-08-05T03:22:53.158Z,3.72
2022-08-05T03:25:32.462Z,3.80
2022-08-05T03:28:05.720Z,3.15
2022-08-05T03:30:34.245Z,4.18
2022-08-05T03:33:07.377Z,3.10
2022-08-05T03:35:40.441Z,3.30
2022-08-05T03:38:11.884Z,3.72
2022-08-05T03:40:45.239Z,3.40
2022-08-05T03:43:59.149Z,3.33
2022-08-05T03:46:02.987Z,3.55
2022-08-05T03:48:32.206Z,3.13
2022-08-05T03:52:48.274Z,3.13
2022-08-05T03:55:49.744Z,3.17
2022-08-05T03:57:16.314Z,3.38
2022-08-05T04:00:05.391Z,3.35
2022-08-05T04:02:38.711Z,3.10
2022-08-05T04:05:09.606Z,3.15
2022-08-05T04:07:58.618Z,3.67
2022-08-05T04:10:37.194Z,6.15
2022-08-05T04:13:07.350Z,3.00
2022-08-05T04:15:36.472Z,3.10
2022-08-05T04:18:09.570Z,2.35
2022-08-05T04:20:41.176Z,2.55
2022-08-05T04:23:12.496Z,2.63
2022-08-05T04:25:57.900Z,3.00
2022-08-05T04:28:28.507Z,2.97
2022-08-05T04:31:01.063Z,3.53
2022-08-05T04:34:19.009Z,2.85
2022-08-05T04:36:45.872Z,5.05
2022-08-05T04:39:04.043Z,6.47
2022-08-05T04:41:37.907Z,7.20
2022-08-05T04:44:09.056Z,4.15
2022-08-05T04:46:38.147Z,4.10
2022-08-05T04:49:12.428Z,5.53
2022-08-05T04:51:45.275Z,4.93
2022-08-05T04:54:14.895Z,5.55
2022-08-05T04:56:42.156Z,4.80
2022-08-05T04:59:22.476Z,5.55
2022-08-05T05:02:07.570Z,3.08
2022-08-05T05:04:44.128Z,3.45
2022-08-05T05:07:29.534Z,4.15
2022-08-05T05:09:59.347Z,2.90
2022-08-05T05:12:29.447Z,7.40
2022-08-05T05:14:56.457Z,7.68
2022-08-05T05:17:55.949Z,2.13
2022-08-05T05:20:13.488Z,2.33
2022-08-05T05:22:41.326Z,4.45
2022-08-05T05:25:16.682Z,2.25
2022-08-05T05:27:53.456Z,2.50
2022-08-05T05:30:31.397Z,2.53
2022-08-05T05:33:03.524Z,2.13
2022-08-05T05:35:42.526Z,2.92
2022-08-05T05:38:13.375Z,3.05
2022-08-05T05:40:49.923Z,2.75
2022-08-05T05:43:27.736Z,2.70
2022-08-05T05:46:13.657Z,2.60
2022-08-05T05:48:44.269Z,2.60
2022-08-05T05:51:15.772Z,2.20
2022-08-05T05:53:54.119Z,2.40
2022-08-05T05:56:32.750Z,2.00
2022-08-05T05:59:06.799Z,2.75
2022-08-05T06:01:38.969Z,2.58
2022-08-05T06:04:11.725Z,2.50
2022-08-05T06:06:41.861Z,2.90
2022-08-05T06:09:09.339Z,2.60
2022-08-05T06:11:59.167Z,3.03
2022-08-05T06:14:33.436Z,2.13
2022-08-05T06:17:21.964Z,3.20
2022-08-05T06:19:56.873Z,2.35
2022-08-05T06:22:29.729Z,2.70
2022-08-05T06:24:57.323Z,1.92
2022-08-05T06:28:12.791Z,2.78
2022-08-05T06:30:20.101Z,2.83
2022-08-05T06:32:50.678Z,2.92
2022-08-05T06:36:03.447Z,2.60
2022-08-05T06:38:11.679Z,3.00
2022-08-05T06:40:42.152Z,2.85
2022-08-05T06:43:59.115Z,2.70
2022-08-05T06:46:03.809Z,3.08
2022-08-05T06:48:53.651Z,2.45
2022-08-05T06:51:29.446Z,2.20
2022-08-05T06:53:58.974Z,2.28
2022-08-05T06:56:27.094Z,4.40
2022-08-05T06:58:55.291Z,2.60
2022-08-05T07:01:22.642Z,2.80
2022-08-05T07:03:49.878Z,2.47
2022-08-05T07:06:19.225Z,2.65
2022-08-05T07:08:54.951Z,2.35
2022-08-05T07:11:25.363Z,2.72
2022-08-05T07:14:15.584Z,2.55
2022-08-05T07:18:00.693Z,3.28
2022-08-05T07:20:23.049Z,1.85
2022-08-05T07:22:29.172Z,2.15
2022-08-05T07:25:09.524Z,2.08
2022-08-05T07:27:56.595Z,1.75
2022-08-05T07:30:31.905Z,2.00
2022-08-05T07:33:05.571Z,2.80
2022-08-05T07:36:01.747Z,3.50
2022-08-05T07:38:34.292Z,1.90
2022-08-05T07:41:34.948Z,1.83
2022-08-05T07:43:57.699Z,1.60
2022-08-05T07:46:28.653Z,2.25
2022-08-05T07:49:01.942Z,2.03
2022-08-05T07:51:40.671Z,1.95
2022-08-05T07:54:18.848Z,1.85
2022-08-05T07:57:01.155Z,2.03
2022-08-05T07:59:40.112Z,2.20
2022-08-05T08:02:16.960Z,1.63
2022-08-05T08:04:46.523Z,1.45
2022-08-05T08:07:15.020Z,2.67
2022-08-05T08:09:43.096Z,1.83
2022-08-05T08:12:27.357Z,1.25
2022-08-05T08:15:02.227Z,1.45
2022-08-05T08:17:30.943Z,1.50
2022-08-05T08:20:21.652Z,1.20
2022-08-05T08:22:55.682Z,1.30
2022-08-05T08:25:27.059Z,1.45
2022-08-05T08:28:11.436Z,1.40
2022-08-05T08:30:47.817Z,1.23
2022-08-05T08:33:16.852Z,1.08
2022-08-05T08:35:53.151Z,1.10
2022-08-05T08:38:35.544Z,1.00
2022-08-05T08:41:07.438Z,1.17
2022-08-05T08:45:25.273Z,1.33
2022-08-05T08:46:30.504Z,0.80
2022-08-05T08:50:04.107Z,1.05
2022-08-05T08:52:04.407Z,1.00
2022-08-05T08:54:42.180Z,0.95
2022-08-05T08:57:13.378Z,1.10
2022-08-05T08:59:42.065Z,0.95
2022-08-05T09:02:16.651Z,1.05
2022-08-05T09:04:58.250Z,1.27
2022-08-05T09:07:39.411Z,0.98
2022-08-05T09:10:07.638Z,1.50
2022-08-05T09:12:35.406Z,0.93
2022-08-05T09:15:06.888Z,1.30
2022-08-05T09:17:42.499Z,1.20
2022-08-05T09:20:13.405Z,1.00
2022-08-05T09:23:18.598Z,1.30
2022-08-05T09:26:01.997Z,1.13
2022-08-05T09:28:33.836Z,1.80
2022-08-05T09:31:43.846Z,0.90
2022-08-05T09:34:01.711Z,1.00
2022-08-05T09:36:55.974Z,1.73
2022-08-05T09:39:45.080Z,0.98
2022-08-05T09:42:23.182Z,0.98
2022-08-05T09:44:56.849Z,1.30
2022-08-05T09:47:49.073Z,1.13
2022-08-05T09:50:17.800Z,1.27
2022-08-05T09:53:01.806Z,1.23
2022-08-05T09:55:56.674Z,2.65
2022-08-05T09:58:24.945Z,1.58
2022-08-05T10:00:56.797Z,2.25
2022-08-05T10:03:56.695Z,0.80
2022-08-05T10:06:15.578Z,1.00
2022-08-05T10:08:43.457Z,1.00
2022-08-05T10:11:21.354Z,1.00
2022-08-05T10:13:54.639Z,1.33
2022-08-05T10:16:34.329Z,1.08
2022-08-05T10:19:11.834Z,1.10
2022-08-05T10:21:40.124Z,1.17
2022-08-05T10:24:15.382Z,1.00
2022-08-05T10:26:48.851Z,1.20
2022-08-05T10:29:23.430Z,0.90
2022-08-05T10:32:52.276Z,1.02
2022-08-05T10:34:40.817Z,1.17
2022-08-05T10:37:08.303Z,1.20
2022-08-05T10:40:03.585Z,0.95
2022-08-05T10:42:33.934Z,0.90
2022-08-05T10:45:20.879Z,0.60
2022-08-05T10:47:56.189Z,1.05
2022-08-05T10:51:01.500Z,1.00
2022-08-05T10:53:45.310Z,0.90
2022-08-05T10:56:25.464Z,0.98
2022-08-05T10:59:11.472Z,1.00
2022-08-05T11:01:55.145Z,1.13
2022-08-05T11:04:31.865Z,1.30
2022-08-05T11:07:06.753Z,1.58
2022-08-05T11:09:46.609Z,1.20
2022-08-05T11:12:41.845Z,1.48
2022-08-05T11:15:20.370Z,1.90
2022-08-05T11:17:58.089Z,1.10
2022-08-05T11:20:41.495Z,1.10
2022-08-05T11:23:33.712Z,1.02
2022-08-05T11:26:28.419Z,1.95
2022-08-05T11:28:57.106Z,1.13
2022-08-05T11:31:56.417Z,1.58
2022-08-05T11:34:39.727Z,6.40
2022-08-05T11:38:29.891Z,1.33
2022-08-05T11:39:55.396Z,0.98
2022-08-05T11:42:28.607Z,1.05
2022-08-05T11:45:05.604Z,1.25
2022-08-05T11:47:49.253Z,0.80
2022-08-05T11:50:18.248Z,1.10
2022-08-05T11:52:45.957Z,1.92
2022-08-05T11:55:13.924Z,1.42
2022-08-05T11:58:10.454Z,1.15
2022-08-05T12:00:37.854Z,1.17
2022-08-05T12:03:29.264Z,1.30
2022-08-05T12:06:06.610Z,1.27
2022-08-05T12:08:49.775Z,1.08
2022-08-05T12:11:23.886Z,1.02
2022-08-05T12:14:04.368Z,1.77
2022-08-05T12:16:38.223Z,0.90
2022-08-05T12:19:08.338Z,1.02
2022-08-05T12:21:50.921Z,1.10
2022-08-05T12:24:20.214Z,1.00
2022-08-05T12:26:52.943Z,0.95
2022-08-05T12:29:26.095Z,0.90
2022-08-05T12:31:56.503Z,0.95
2022-08-05T12:34:31.473Z,1.70
2022-08-05T12:37:03.458Z,1.20
2022-08-05T12:39:37.504Z,0.80
2022-08-05T12:42:14.785Z,1.08
2022-08-05T12:44:43.215Z,1.23
2022-08-05T12:47:12.539Z,1.17
2022-08-05T12:50:04.854Z,1.02
2022-08-05T12:52:38.723Z,1.48
2022-08-05T12:55:25.345Z,1.02
2022-08-05T12:58:50.459Z,1.00
2022-08-05T13:02:00.691Z,1.75
2022-08-05T13:03:38.990Z,1.52
2022-08-05T13:06:16.006Z,0.98
2022-08-05T13:08:50.719Z,1.20
2022-08-05T13:12:01.592Z,1.08
2022-08-05T13:14:25.023Z,1.60
2022-08-05T13:17:16.442Z,1.65
2022-08-05T13:20:09.448Z,1.40
2022-08-05T13:22:40.773Z,1.17
2022-08-05T13:25:19.265Z,1.33
2022-08-05T13:27:54.646Z,1.40
2022-08-05T13:30:33.151Z,1.30
2022-08-05T13:33:03.290Z,1.58
2022-08-05T13:35:42.877Z,1.65
2022-08-05T13:38:20.263Z,1.10
2022-08-05T13:40:59.288Z,1.20
2022-08-05T13:43:45.266Z,1.33
2022-08-05T13:46:16.540Z,1.20
2022-08-05T13:49:03.963Z,1.92
2022-08-05T13:51:40.298Z,0.77
2022-08-05T13:54:15.083Z,1.05
2022-08-05T13:56:45.434Z,1.63
2022-08-05T13:59:27.231Z,1.23
2022-08-05T14:01:58.166Z,1.92
2022-08-05T14:05:00.580Z,1.10
2022-08-05T14:07:59.657Z,1.20
2022-08-05T14:10:28.602Z,1.10
2022-08-05T14:12:57.092Z,1.40
2022-08-05T14:16:09.088Z,1.30
2022-08-05T14:18:18.169Z,1.40
2022-08-05T14:20:55.054Z,1.10
2022-08-05T14:23:25.731Z,1.40
2022-08-05T14:25:58.382Z,1.17
2022-08-05T14:28:30.171Z,1.30
2022-08-05T14:30:58.333Z,1.70
2022-08-05T14:33:25.445Z,1.13
2022-08-05T14:35:54.271Z,1.30
2022-08-05T14:38:32.739Z,1.02
2022-08-05T14:41:06.966Z,1.30
2022-08-05T14:43:58.911Z,1.60
2022-08-05T14:46:28.108Z,1.30
2022-08-05T14:48:59.678Z,1.40
2022-08-05T14:51:33.449Z,1.30
2022-08-05T14:54:28.559Z,1.65
2022-08-05T14:56:48.352Z,1.45
2022-08-05T14:59:15.665Z,1.10
2022-08-05T15:01:48.072Z,1.60
2022-08-05T15:04:20.615Z,1.50
2022-08-05T15:06:50.304Z,1.58
2022-08-05T15:09:50.649Z,1.35
2022-08-05T15:12:06.925Z,1.77
2022-08-05T15:14:43.104Z,1.30
2022-08-05T15:17:47.096Z,1.40
2022-08-05T15:20:04.146Z,1.50
2022-08-05T15:22:31.242Z,1.45
2022-08-05T15:24:59.357Z,1.20
2022-08-05T15:27:32.108Z,1.30
2022-08-05T15:30:03.981Z,1.17
2022-08-05T15:32:30.961Z,1.40
2022-08-05T15:34:58.699Z,1.33
2022-08-05T15:38:33.027Z,1.33
2022-08-05T15:40:58.277Z,1.27
2022-08-05T15:43:08.071Z,1.10
2022-08-05T15:45:45.695Z,1.30
2022-08-05T15:48:14.394Z,1.40
2022-08-05T15:50:43.686Z,1.73
2022-08-05T15:53:13.096Z,1.30
2022-08-05T15:56:01.805Z,1.30
2022-08-05T15:58:35.676Z,1.50
2022-08-05T16:01:17.073Z,1.60
2022-08-05T16:03:50.489Z,1.45
2022-08-05T16:06:20.103Z,2.15
2022-08-05T16:08:48.330Z,1.73
2022-08-05T16:11:18.129Z,1.70
2022-08-05T16:13:48.592Z,1.63
2022-08-05T16:16:21.325Z,2.50
2022-08-05T16:18:53.141Z,2.03
2022-08-05T16:21:58.285Z,2.08
2022-08-05T16:24:12.798Z,1.80
2022-08-05T16:26:58.240Z,1.58
2022-08-05T16:29:27.555Z,1.60
2022-08-05T16:31:58.550Z,1.67
2022-08-05T16:34:26.740Z,1.67
2022-08-05T16:36:54.388Z,1.80
2022-08-05T16:39:21.570Z,1.50
2022-08-05T16:42:27.626Z,1.60
2022-08-05T16:44:56.949Z,1.48
2022-08-05T16:47:28.630Z,1.20
2022-08-05T16:50:04.075Z,1.45
2022-08-05T16:52:33.501Z,1.52
2022-08-05T16:55:00.779Z,1.58
2022-08-05T16:57:53.832Z,1.75
2022-08-05T17:00:26.025Z,1.60
2022-08-05T17:03:15.210Z,1.90
2022-08-05T17:05:51.806Z,1.73
2022-08-05T17:08:36.333Z,1.50
2022-08-05T17:11:16.533Z,3.30
2022-08-05T17:13:45.096Z,1.30
2022-08-05T17:16:32.459Z,1.58
2022-08-05T17:19:00.359Z,1.50
2022-08-05T17:21:35.579Z,1.52
2022-08-05T17:24:19.349Z,1.60
2022-08-05T17:26:57.509Z,1.63
2022-08-05T17:29:34.064Z,1.80
2022-08-05T17:32:11.445Z,1.60
2022-08-05T17:34:43.771Z,2.05
2022-08-05T17:37:36.143Z,2.80
2022-08-05T17:39:59.867Z,1.67
2022-08-05T17:42:32.437Z,1.75
2022-08-05T17:45:17.962Z,2.03
2022-08-05T17:47:53.929Z,1.70
2022-08-05T17:50:28.327Z,2.00
2022-08-05T17:53:00.486Z,2.20
2022-08-05T17:55:37.198Z,1.88
2022-08-05T17:58:09.265Z,2.28
2022-08-05T18:00:40.850Z,1.55
2022-08-05T18:03:24.141Z,1.90
2022-08-05T18:06:04.928Z,1.95
2022-08-05T18:08:33.835Z,2.03
2022-08-05T18:11:00.999Z,2.05
2022-08-05T18:13:36.673Z,2.08
2022-08-05T18:16:13.344Z,2.22
2022-08-05T18:18:41.325Z,2.47
2022-08-05T18:21:13.209Z,2.90
2022-08-05T18:23:47.069Z,2.35
2022-08-05T18:26:14.824Z,2.78
2022-08-05T18:28:46.479Z,2.22
2022-08-05T18:31:15.796Z,3.67
2022-08-05T18:33:46.686Z,3.05
2022-08-05T18:36:15.781Z,2.75
2022-08-05T18:38:43.459Z,2.33
2022-08-05T18:41:53.902Z,2.58
2022-08-05T18:44:05.547Z,2.33
2022-08-05T18:46:34.081Z,2.65
2022-08-05T18:49:21.234Z,3.08
2022-08-05T18:52:08.842Z,2.53
2022-08-05T18:54:41.443Z,2.85
2022-08-05T18:57:15.488Z,2.65
2022-08-05T19:00:02.467Z,2.72
2022-08-05T19:02:29.836Z,2.55
2022-08-05T19:06:11.176Z,2.55
2022-08-05T19:07:50.711Z,2.70
2022-08-05T19:10:26.818Z,2.90
2022-08-05T19:12:56.337Z,3.03
2022-08-05T19:15:57.389Z,2.80
2022-08-05T19:18:20.844Z,3.20
2022-08-05T19:20:52.451Z,3.83
2022-08-05T19:24:03.642Z,3.45
2022-08-05T19:26:08.561Z,3.67
2022-08-05T19:28:42.264Z,4.18
2022-08-05T19:31:18.024Z,3.75
2022-08-05T19:33:56.404Z,3.58
2022-08-05T19:36:29.567Z,3.95
2022-08-05T19:38:58.774Z,3.90
2022-08-05T19:41:58.063Z,4.07
2022-08-05T19:44:15.059Z,4.25
2022-08-05T19:46:43.799Z,3.85
2022-08-05T19:49:12.459Z,4.43
2022-08-05T19:52:05.522Z,4.18
2022-08-05T19:54:37.052Z,4.47
2022-08-05T19:57:06.314Z,4.22
2022-08-05T20:00:00.619Z,4.10
2022-08-05T20:02:24.435Z,4.90
2022-08-05T20:04:55.547Z,5.45
2022-08-05T20:07:47.243Z,4.82
2022-08-05T20:10:14.667Z,5.57
2022-08-05T20:12:48.156Z,5.03
2022-08-05T20:15:23.231Z,5.55
2022-08-05T20:18:10.114Z,5.60
2022-08-05T20:20:56.838Z,6.20
2022-08-05T20:23:40.526Z,5.63
2022-08-05T20:26:16.462Z,5.93
2022-08-05T20:28:54.085Z,6.57
2022-08-05T20:31:37.060Z,5.80
2022-08-05T20:34:12.494Z,5.78
2022-08-05T20:36:43.682Z,5.80
2022-08-05T20:39:13.335Z,5.63
2022-08-05T20:41:45.445Z,6.43
2022-08-05T20:44:29.942Z,5.78
2022-08-05T20:47:03.444Z,5.88
2022-08-05T20:49:33.196Z,5.88
2022-08-05T20:52:05.555Z,5.70
2022-08-05T20:54:59.781Z,6.22
2022-08-05T20:57:42.213Z,5.95
2022-08-05T21:00:36.330Z,6.35
2022-08-05T21:03:01.272Z,5.95
2022-08-05T21:05:47.690Z,5.32
2022-08-05T21:08:17.248Z,6.40
2022-08-05T21:10:48.831Z,5.75
2022-08-05T21:13:26.476Z,6.35
2022-08-05T21:16:03.825Z,6.38
2022-08-05T21:18:30.909Z,6.65
2022-08-05T21:20:58.096Z,5.93
2022-08-05T21:23:25.188Z,5.25
2022-08-05T21:25:55.327Z,5.80
2022-08-05T21:28:23.971Z,6.60
2022-08-05T21:30:57.827Z,5.63
2022-08-05T21:33:39.962Z,5.55
2022-08-05T21:36:09.896Z,5.05
2022-08-05T21:38:40.346Z,5.25
2022-08-05T21:41:08.368Z,5.20
2022-08-05T21:43:41.435Z,5.10
2022-08-05T21:46:09.205Z,4.53
2022-08-05T21:48:39.695Z,4.38
2022-08-05T21:51:25.006Z,4.68
2022-08-05T21:53:59.413Z,5.10
2022-08-05T21:56:30.999Z,4.70
2022-08-05T21:58:58.246Z,4.35
2022-08-05T22:01:26.475Z,4.20
2022-08-05T22:03:53.915Z,3.97
2022-08-05T22:06:35.506Z,4.38
2022-08-05T22:09:13.997Z,3.22
2022-08-05T22:11:46.758Z,3.72
2022-08-05T22:14:33.030Z,3.15
2022-08-05T22:17:04.046Z,3.33
2022-08-05T22:20:00.390Z,2.78
2022-08-05T22:22:26.880Z,2.30
2022-08-05T22:25:27.323Z,2.20
2022-08-05T22:28:09.824Z,2.22
2022-08-05T22:30:55.554Z,2.30
2022-08-05T22:33:56.631Z,2.28
2022-08-05T22:36:14.231Z,1.45
2022-08-05T22:38:47.964Z,1.90
2022-08-05T22:41:26.254Z,1.80
2022-08-05T22:44:04.267Z,2.03
2022-08-05T22:46:40.734Z,1.92
2022-08-05T22:50:17.165Z,1.70
2022-08-05T22:52:05.909Z,1.83
2022-08-05T22:54:36.470Z,1.45
2022-08-05T22:57:05.702Z,1.60
2022-08-05T22:59:48.576Z,1.42
2022-08-05T23:02:29.615Z,1.63
2022-08-05T23:05:01.994Z,1.50
2022-08-05T23:07:43.787Z,1.38
2022-08-05T23:10:23.848Z,1.48
2022-08-05T23:12:55.183Z,1.60
2022-08-05T23:15:30.049Z,1.30
2022-08-05T23:18:11.839Z,1.30
2022-08-05T23:20:43.454Z,1.30
2022-08-05T23:23:10.665Z,1.27
2022-08-05T23:25:53.008Z,1.23
2022-08-05T23:28:29.389Z,1.00
2022-08-05T23:31:15.638Z,1.40
2022-08-05T23:34:03.008Z,1.00
2022-08-05T23:36:38.426Z,1.20
2022-08-05T23:39:08.855Z,1.58
2022-08-05T23:41:48.779Z,1.38
2022-08-05T23:44:16.929Z,1.27
2022-08-05T23:46:47.421Z,1.25
2022-08-05T23:49:23.638Z,1.42
2022-08-05T23:52:11.272Z,1.52
2022-08-05T23:54:38.878Z,1.38
2022-08-05T23:57:07.605Z,1.02
